Time;durP1;ratioP1;P1;durP2;ratioP2;P2;SDS_P1;SDS_P2;PMS_P1;PMS_P2;Temp;Humidity;BMP_temperature;BMP_pressure;BME280_temperature;BME280_humidity;BME280_pressure;Samples;Min_cycle;Max_cycle;Signal;HPM_P1;HPM_P2
2020/12/07 00:01:21;;;;;;;54.55;33.08;;;;;;;;;;5093529;28;20249;-65
2020/12/07 00:03:47;;;;;;;60.05;34.38;;;;;;;;;;5093202;28;20250;-66
2020/12/07 00:06:17;;;;;;;51.33;32.40;;;;;;;;;;5093547;28;20269;-67
2020/12/07 00:08:45;;;;;;;50.22;32.60;;;;;;;;;;5093227;28;20341;-66
2020/12/07 00:11:12;;;;;;;56.00;32.50;;;;;;;;;;5093382;28;20228;-66
2020/12/07 00:13:38;;;;;;;54.53;33.13;;;;;;;;;;5093553;28;20204;-65
2020/12/07 00:16:07;;;;;;;54.53;31.33;;;;;;;;;;5093257;28;20258;-65
2020/12/07 00:18:34;;;;;;;55.10;32.70;;;;;;;;;;5093234;28;20644;-66
2020/12/07 00:21:01;;;;;;;58.15;31.75;;;;;;;;;;5093092;28;20224;-66
2020/12/07 00:23:28;;;;;;;59.13;34.30;;;;;;;;;;5095920;28;20542;-65
2020/12/07 00:25:55;;;;;;;51.78;32.17;;;;;;;;;;5097344;28;20668;-66
2020/12/07 00:28:22;;;;;;;54.92;31.52;;;;;;;;;;5097990;28;20228;-66
2020/12/07 00:30:49;;;;;;;50.70;32.25;;;;;;;;;;5098316;28;20645;-66
2020/12/07 00:33:16;;;;;;;50.25;29.75;;;;;;;;;;5098048;28;20253;-66
2020/12/07 00:35:42;;;;;;;50.42;29.77;;;;;;;;;;5097962;28;20277;-65
2020/12/07 00:38:09;;;;;;;48.47;29.75;;;;;;;;;;5097446;28;20618;-66
2020/12/07 00:40:36;;;;;;;54.40;33.85;;;;;;;;;;5097350;28;20224;-67
2020/12/07 00:43:03;;;;;;;64.22;33.13;;;;;;;;;;5097295;28;20196;-65
2020/12/07 00:45:30;;;;;;;46.70;30.00;;;;;;;;;;5097494;28;20208;-65
2020/12/07 00:47:57;;;;;;;50.15;31.08;;;;;;;;;;5097049;28;20761;-66
2020/12/07 00:50:24;;;;;;;54.63;32.75;;;;;;;;;;5097424;28;20228;-67
2020/12/07 00:52:50;;;;;;;51.65;33.40;;;;;;;;;;5098371;28;20258;-65
2020/12/07 00:55:17;;;;;;;50.22;31.05;;;;;;;;;;5098076;28;20212;-65
2020/12/07 00:57:44;;;;;;;50.47;30.10;;;;;;;;;;5098448;28;20201;-67
2020/12/07 01:00:12;;;;;;;52.25;31.98;;;;;;;;;;5107481;28;20228;-65
2020/12/07 01:02:39;;;;;;;50.00;31.00;;;;;;;;;;5107789;28;20200;-68
2020/12/07 01:05:05;;;;;;;51.85;33.67;;;;;;;;;;5104654;28;20254;-64
2020/12/07 01:07:32;;;;;;;59.58;33.40;;;;;;;;;;5099704;28;20706;-65
2020/12/07 01:09:59;;;;;;;59.53;33.08;;;;;;;;;;5098121;28;20297;-65
2020/12/07 01:12:26;;;;;;;51.70;31.90;;;;;;;;;;5097329;28;20204;-64
2020/12/07 01:14:52;;;;;;;54.53;32.10;;;;;;;;;;5096917;28;20201;-65
2020/12/07 01:17:20;;;;;;;54.55;32.45;;;;;;;;;;5096760;28;20197;-64
2020/12/07 01:19:47;;;;;;;50.47;31.27;;;;;;;;;;5097061;28;20265;-66
2020/12/07 01:22:14;;;;;;;56.17;33.53;;;;;;;;;;5097307;28;20200;-65
2020/12/07 01:24:40;;;;;;;54.78;32.65;;;;;;;;;;5097065;28;20208;-66
2020/12/07 01:27:07;;;;;;;51.58;32.53;;;;;;;;;;5097411;28;20253;-66
2020/12/07 01:29:34;;;;;;;51.50;30.90;;;;;;;;;;5097492;28;20220;-65
2020/12/07 01:32:01;;;;;;;58.40;32.78;;;;;;;;;;5096686;28;20630;-65
2020/12/07 01:34:29;;;;;;;51.47;29.88;;;;;;;;;;5095910;28;20567;-64
2020/12/07 01:36:55;;;;;;;52.88;31.27;;;;;;;;;;5096568;28;20196;-65
2020/12/07 01:39:22;;;;;;;52.83;31.20;;;;;;;;;;5096734;28;20220;-66
2020/12/07 01:41:49;;;;;;;53.10;32.33;;;;;;;;;;5096555;28;20542;-65
2020/12/07 01:44:16;;;;;;;56.67;31.98;;;;;;;;;;5096101;28;20265;-66
2020/12/07 01:46:43;;;;;;;55.78;33.28;;;;;;;;;;5097022;28;20200;-66
2020/12/07 01:49:10;;;;;;;56.50;33.55;;;;;;;;;;5096008;28;20636;-65
2020/12/07 01:51:38;;;;;;;55.35;33.65;;;;;;;;;;5096159;28;20285;-66
2020/12/07 01:54:05;;;;;;;52.78;36.47;;;;;;;;;;5096193;28;20273;-65
2020/12/07 01:56:32;;;;;;;49.50;30.15;;;;;;;;;;5096076;28;20200;-66
2020/12/07 01:58:59;;;;;;;46.22;30.92;;;;;;;;;;5095779;28;20207;-65
2020/12/07 02:01:26;;;;;;;50.75;31.42;;;;;;;;;;5096156;28;20196;-65
2020/12/07 02:03:53;;;;;;;48.22;30.50;;;;;;;;;;5095826;28;20200;-66
2020/12/07 02:06:20;;;;;;;54.20;32.63;;;;;;;;;;5095616;28;20277;-66
2020/12/07 02:08:49;;;;;;;52.47;31.58;;;;;;;;;;5096073;28;20220;-65
2020/12/07 02:11:16;;;;;;;49.55;32.53;;;;;;;;;;5096453;28;20685;-65
2020/12/07 02:13:43;;;;;;;52.83;33.47;;;;;;;;;;5097283;28;20201;-65
2020/12/07 02:16:10;;;;;;;54.60;33.55;;;;;;;;;;5096613;28;20200;-65
2020/12/07 02:18:37;;;;;;;54.30;34.38;;;;;;;;;;5098213;28;20200;-65
2020/12/07 02:21:05;;;;;;;59.47;32.05;;;;;;;;;;5098245;28;20634;-66
2020/12/07 02:23:31;;;;;;;52.30;32.63;;;;;;;;;;5098926;28;20204;-65
2020/12/07 02:25:58;;;;;;;58.80;33.55;;;;;;;;;;5099358;28;20200;-65
2020/12/07 02:28:25;;;;;;;51.95;31.40;;;;;;;;;;5097957;28;20562;-65
2020/12/07 02:30:51;;;;;;;55.08;32.10;;;;;;;;;;5096546;28;20228;-65
2020/12/07 02:33:18;;;;;;;55.42;33.08;;;;;;;;;;5096186;28;20254;-66
2020/12/07 02:35:45;;;;;;;59.28;32.17;;;;;;;;;;5096589;28;20200;-66
2020/12/07 02:38:13;;;;;;;52.85;32.20;;;;;;;;;;5095827;28;20192;-66
2020/12/07 02:40:39;;;;;;;54.97;33.28;;;;;;;;;;5095648;28;20224;-64
2020/12/07 02:43:07;;;;;;;59.65;33.95;;;;;;;;;;5095291;28;20200;-65
2020/12/07 02:45:33;;;;;;;57.70;33.92;;;;;;;;;;5094627;28;20249;-65
2020/12/07 02:48:00;;;;;;;52.35;32.88;;;;;;;;;;5094690;28;20238;-64
2020/12/07 02:50:27;;;;;;;53.63;32.38;;;;;;;;;;5095133;28;20274;-66
2020/12/07 02:52:54;;;;;;;62.20;33.65;;;;;;;;;;5095294;28;20246;-66
2020/12/07 02:55:21;;;;;;;53.30;32.92;;;;;;;;;;5095048;28;20204;-66
2020/12/07 02:57:48;;;;;;;57.70;33.55;;;;;;;;;;5094681;28;20250;-65
2020/12/07 03:00:15;;;;;;;56.63;34.03;;;;;;;;;;5094392;28;20217;-66
2020/12/07 03:02:41;;;;;;;60.78;33.72;;;;;;;;;;5094910;28;20257;-66
2020/12/07 03:05:08;;;;;;;57.70;31.17;;;;;;;;;;5095256;28;20204;-65
2020/12/07 03:07:35;;;;;;;55.10;33.13;;;;;;;;;;5094788;28;20189;-65
2020/12/07 03:10:02;;;;;;;53.40;31.52;;;;;;;;;;5094732;28;20289;-66
2020/12/07 03:12:29;;;;;;;58.38;34.15;;;;;;;;;;5094767;28;20609;-66
2020/12/07 03:14:56;;;;;;;61.63;36.60;;;;;;;;;;5094601;28;20196;-66
2020/12/07 03:17:23;;;;;;;58.38;32.22;;;;;;;;;;5094584;28;20196;-66
2020/12/07 03:19:49;;;;;;;56.40;31.50;;;;;;;;;;5095860;28;20217;-64
2020/12/07 03:22:16;;;;;;;54.40;33.33;;;;;;;;;;5095225;28;20204;-66
2020/12/07 03:24:43;;;;;;;49.95;32.33;;;;;;;;;;5095284;28;20250;-65
2020/12/07 03:27:10;;;;;;;54.20;33.30;;;;;;;;;;5094804;28;20205;-65
2020/12/07 03:29:37;;;;;;;52.67;31.88;;;;;;;;;;5094602;28;20224;-66
2020/12/07 03:32:04;;;;;;;57.33;32.55;;;;;;;;;;5095208;28;20208;-66
2020/12/07 03:34:31;;;;;;;53.03;32.15;;;;;;;;;;5094954;28;20250;-65
2020/12/07 03:36:57;;;;;;;57.13;33.33;;;;;;;;;;5094607;28;20254;-66
2020/12/07 03:39:24;;;;;;;49.25;31.58;;;;;;;;;;5095071;28;20269;-65
2020/12/07 03:41:51;;;;;;;55.13;32.60;;;;;;;;;;5095044;28;20208;-64
2020/12/07 03:44:18;;;;;;;46.72;31.35;;;;;;;;;;5094300;28;20617;-66
2020/12/07 03:46:46;;;;;;;50.03;31.73;;;;;;;;;;5094237;28;20287;-66
2020/12/07 03:49:13;;;;;;;53.70;32.95;;;;;;;;;;5095171;28;20638;-65
2020/12/07 03:51:39;;;;;;;48.50;30.55;;;;;;;;;;5096723;28;20664;-66
2020/12/07 03:54:06;;;;;;;48.92;33.35;;;;;;;;;;5096522;28;20204;-66
2020/12/07 03:56:33;;;;;;;52.45;34.75;;;;;;;;;;5096841;28;20200;-67
2020/12/07 03:59:00;;;;;;;50.88;33.20;;;;;;;;;;5112347;28;20258;-66
2020/12/07 04:01:26;;;;;;;55.95;33.78;;;;;;;;;;5112534;28;20737;-65
2020/12/07 04:07:25;;;;;;;57.58;34.08;;;;;;;;;;5124767;27;20540;-65
2020/12/07 04:09:52;;;;;;;53.97;33.90;;;;;;;;;;5124586;28;20255;-65
2020/12/07 04:12:19;;;;;;;54.05;33.08;;;;;;;;;;5113744;28;20682;-66
2020/12/07 04:14:46;;;;;;;53.33;31.75;;;;;;;;;;5111283;28;20199;-65
2020/12/07 04:17:13;;;;;;;53.75;34.38;;;;;;;;;;5111229;28;20248;-67
2020/12/07 04:19:40;;;;;;;46.55;32.30;;;;;;;;;;5111369;28;20228;-67
2020/12/07 04:22:06;;;;;;;53.05;33.30;;;;;;;;;;5112439;28;20200;-66
2020/12/07 04:24:34;;;;;;;48.63;30.13;;;;;;;;;;5111256;28;20225;-66
2020/12/07 04:27:01;;;;;;;51.15;33.08;;;;;;;;;;5110972;28;20562;-64
2020/12/07 04:29:27;;;;;;;50.20;34.20;;;;;;;;;;5110878;28;20228;-65
2020/12/07 04:31:54;;;;;;;50.97;33.03;;;;;;;;;;5111144;28;20204;-65
2020/12/07 04:34:21;;;;;;;55.95;36.08;;;;;;;;;;5110804;28;20233;-66
2020/12/07 04:36:48;;;;;;;53.92;30.95;;;;;;;;;;5111018;28;20195;-65
2020/12/07 04:39:14;;;;;;;54.03;33.03;;;;;;;;;;5111849;28;20220;-65
2020/12/07 04:41:42;;;;;;;57.13;33.75;;;;;;;;;;5112796;28;20269;-65
2020/12/07 04:44:09;;;;;;;52.67;32.38;;;;;;;;;;5112440;28;20195;-65
2020/12/07 04:46:37;;;;;;;52.97;31.08;;;;;;;;;;5111509;28;20220;-65
2020/12/07 04:49:04;;;;;;;51.55;32.72;;;;;;;;;;5111156;28;20204;-65
2020/12/07 04:51:31;;;;;;;54.33;33.20;;;;;;;;;;5110807;28;20207;-65
2020/12/07 04:53:58;;;;;;;54.13;32.75;;;;;;;;;;5110942;28;20204;-65
2020/12/07 04:56:26;;;;;;;57.42;33.22;;;;;;;;;;5111349;28;20230;-65
2020/12/07 04:58:53;;;;;;;54.55;32.20;;;;;;;;;;5111082;28;20204;-66
2020/12/07 05:01:20;;;;;;;56.03;30.92;;;;;;;;;;5110589;28;20200;-65
2020/12/07 05:03:47;;;;;;;54.95;33.72;;;;;;;;;;5110522;28;20199;-65
2020/12/07 05:06:17;;;;;;;50.67;32.80;;;;;;;;;;5110103;28;20220;-64
2020/12/07 05:08:45;;;;;;;52.30;33.80;;;;;;;;;;5110500;28;20195;-65
2020/12/07 05:11:12;;;;;;;49.63;33.47;;;;;;;;;;5110249;28;20246;-65
2020/12/07 05:13:41;;;;;;;50.08;32.85;;;;;;;;;;5110224;28;20200;-65
2020/12/07 05:16:09;;;;;;;54.72;33.22;;;;;;;;;;5110576;28;20219;-65
2020/12/07 05:18:38;;;;;;;50.33;31.20;;;;;;;;;;5097984;28;20239;-64
2020/12/07 05:21:05;;;;;;;51.55;31.95;;;;;;;;;;5096845;28;20216;-65
2020/12/07 05:23:35;;;;;;;50.50;32.63;;;;;;;;;;5097055;28;20204;-65
2020/12/07 05:26:02;;;;;;;54.38;32.47;;;;;;;;;;5096676;28;20227;-65
2020/12/07 05:28:35;;;;;;;46.90;32.13;;;;;;;;;;5100989;28;20264;-66
2020/12/07 05:31:02;;;;;;;57.42;32.97;;;;;;;;;;5105855;28;20220;-65
2020/12/07 05:33:31;;;;;;;54.40;33.72;;;;;;;;;;5103523;28;20204;-66
2020/12/07 05:35:58;;;;;;;44.40;30.60;;;;;;;;;;5099903;28;20254;-64
2020/12/07 05:38:32;;;;;;;55.65;32.22;;;;;;;;;;5099882;28;20208;-64
2020/12/07 05:41:00;;;;;;;53.55;33.03;;;;;;;;;;5098119;28;20247;-65
2020/12/07 05:43:27;;;;;;;53.13;31.92;;;;;;;;;;5097194;28;20204;-64
2020/12/07 05:45:54;;;;;;;54.40;34.28;;;;;;;;;;5096636;28;20216;-65
2020/12/07 05:48:21;;;;;;;50.05;31.38;;;;;;;;;;5096889;28;20250;-64
2020/12/07 05:50:50;;;;;;;49.90;32.60;;;;;;;;;;5097531;28;20220;-65
2020/12/07 05:53:17;;;;;;;53.90;32.38;;;;;;;;;;5098616;28;20242;-65
2020/12/07 05:55:43;;;;;;;50.75;33.38;;;;;;;;;;5098114;28;20246;-64
2020/12/07 05:58:12;;;;;;;51.83;32.60;;;;;;;;;;5097999;28;20200;-64
2020/12/07 06:00:39;;;;;;;52.83;32.95;;;;;;;;;;5096629;28;20289;-64
2020/12/07 06:03:06;;;;;;;52.28;32.58;;;;;;;;;;5097451;28;20204;-65
2020/12/07 06:05:33;;;;;;;47.83;32.13;;;;;;;;;;5097480;28;20622;-65
2020/12/07 06:08:04;;;;;;;47.90;31.02;;;;;;;;;;5097317;28;20185;-63
2020/12/07 06:10:33;;;;;;;52.40;32.70;;;;;;;;;;5096431;28;20284;-65
2020/12/07 06:13:01;;;;;;;52.20;31.23;;;;;;;;;;5097298;28;20261;-65
2020/12/07 06:15:31;;;;;;;55.65;34.15;;;;;;;;;;5098106;28;20668;-63
2020/12/07 06:17:57;;;;;;;50.55;32.60;;;;;;;;;;5096758;28;20211;-64
2020/12/07 06:20:31;;;;;;;53.28;33.22;;;;;;;;;;5095686;28;20220;-65
2020/12/07 06:22:59;;;;;;;54.85;34.00;;;;;;;;;;5096040;28;20667;-64
2020/12/07 06:25:30;;;;;;;53.00;34.38;;;;;;;;;;5095393;28;20204;-64
2020/12/07 06:28:04;;;;;;;53.25;32.30;;;;;;;;;;5095778;28;20635;-65
2020/12/07 06:30:31;;;;;;;51.20;32.67;;;;;;;;;;5095086;28;20216;-65
2020/12/07 06:32:58;;;;;;;50.35;32.75;;;;;;;;;;5095934;28;20296;-65
2020/12/07 06:35:27;;;;;;;51.47;32.40;;;;;;;;;;5097133;28;20204;-64
2020/12/07 06:37:54;;;;;;;57.80;35.05;;;;;;;;;;5097154;28;20335;-64
2020/12/07 06:40:24;;;;;;;54.45;33.80;;;;;;;;;;5095672;28;20216;-63
2020/12/07 06:42:51;;;;;;;61.67;35.58;;;;;;;;;;5094833;28;20208;-65
2020/12/07 06:45:22;;;;;;;54.30;33.22;;;;;;;;;;5094706;28;20234;-64
2020/12/07 06:47:50;;;;;;;49.25;32.05;;;;;;;;;;5095075;28;20200;-64
2020/12/07 06:50:18;;;;;;;58.67;35.20;;;;;;;;;;5094982;28;20216;-64
2020/12/07 06:52:46;;;;;;;53.58;33.85;;;;;;;;;;5094005;28;20211;-65
2020/12/07 06:55:15;;;;;;;47.60;33.42;;;;;;;;;;5095204;28;20234;-63
2020/12/07 06:57:43;;;;;;;49.55;31.90;;;;;;;;;;5094960;28;20664;-64
2020/12/07 07:00:15;;;;;;;56.00;33.67;;;;;;;;;;5094669;28;20224;-64
2020/12/07 07:02:42;;;;;;;49.70;31.63;;;;;;;;;;5094730;28;20196;-63
2020/12/07 07:05:10;;;;;;;55.10;34.10;;;;;;;;;;5096442;28;20196;-63
2020/12/07 07:07:36;;;;;;;52.75;33.33;;;;;;;;;;5099103;28;20240;-63
2020/12/07 07:10:04;;;;;;;54.20;32.83;;;;;;;;;;5096432;28;20252;-63
2020/12/07 07:12:30;;;;;;;57.65;33.58;;;;;;;;;;5095414;28;20249;-64
2020/12/07 07:14:57;;;;;;;52.47;33.13;;;;;;;;;;5095502;28;20204;-65
2020/12/07 07:17:26;;;;;;;57.10;35.33;;;;;;;;;;5094963;28;20676;-63
2020/12/07 07:19:53;;;;;;;54.72;31.73;;;;;;;;;;5094120;28;20220;-63
2020/12/07 07:22:20;;;;;;;58.53;34.30;;;;;;;;;;5095033;28;20204;-65
2020/12/07 07:25:08;;;;;;;54.20;33.58;;;;;;;;;;5094302;28;20610;-64
2020/12/07 07:30:19;;;;;;;57.22;32.80;;;;;;;;;;5093757;28;20212;-63
2020/12/07 07:32:48;;;;;;;52.40;32.28;;;;;;;;;;5094553;28;20197;-63
2020/12/07 07:35:16;;;;;;;47.60;30.30;;;;;;;;;;5094095;28;20208;-63
2020/12/07 07:37:43;;;;;;;49.03;30.42;;;;;;;;;;5094059;28;20246;-64
2020/12/07 07:40:11;;;;;;;53.83;33.10;;;;;;;;;;5094012;28;20224;-64
2020/12/07 07:42:40;;;;;;;47.60;32.80;;;;;;;;;;5093515;28;20233;-64
2020/12/07 07:45:07;;;;;;;53.83;32.28;;;;;;;;;;5093973;28;20295;-64
2020/12/07 07:47:41;;;;;;;49.20;31.45;;;;;;;;;;5094007;28;20212;-63
2020/12/07 08:15:13;;;;;;;32.38;24.15;;;;;;;;;;5093731;28;20175;-63
2020/12/07 08:15:53;;;;;;;27.98;21.02;;;;;;;;;;5093246;28;20630;-63
2020/12/07 08:18:30;;;;;;;28.30;20.58;;;;;;;;;;5093678;28;20192;-63
2020/12/07 08:21:00;;;;;;;27.67;20.67;;;;;;;;;;5093638;28;20219;-63
2020/12/07 08:23:28;;;;;;;27.85;18.30;;;;;;;;;;5094566;28;20196;-63
2020/12/07 08:25:55;;;;;;;27.55;19.55;;;;;;;;;;5094424;28;20250;-65
2020/12/07 08:28:23;;;;;;;21.52;17.88;;;;;;;;;;5094542;28;20253;-65
2020/12/07 08:31:03;;;;;;;23.63;18.38;;;;;;;;;;5094066;28;20228;-64
2020/12/07 08:33:31;;;;;;;28.60;17.15;;;;;;;;;;5094695;28;20188;-65
2020/12/07 08:35:58;;;;;;;20.67;14.70;;;;;;;;;;5094664;28;20192;-65
2020/12/07 08:38:25;;;;;;;19.85;14.63;;;;;;;;;;5094236;28;20204;-64
2020/12/07 08:40:53;;;;;;;16.92;14.43;;;;;;;;;;5095359;28;20227;-65
2020/12/07 08:43:20;;;;;;;18.00;14.00;;;;;;;;;;5095604;28;20200;-63
2020/12/07 08:45:47;;;;;;;17.50;12.70;;;;;;;;;;5094597;28;20249;-65
2020/12/07 08:48:14;;;;;;;14.00;11.05;;;;;;;;;;5094104;28;20261;-65
2020/12/07 08:50:40;;;;;;;15.38;10.55;;;;;;;;;;5093384;28;20223;-65
2020/12/07 08:53:07;;;;;;;11.77;10.40;;;;;;;;;;5095378;28;20228;-65
2020/12/07 08:55:34;;;;;;;12.23;10.35;;;;;;;;;;5097943;28;20196;-65
2020/12/07 08:58:01;;;;;;;10.55;9.55;;;;;;;;;;5098573;28;20204;-64
2020/12/07 09:00:28;;;;;;;13.80;10.38;;;;;;;;;;5097918;28;20261;-64
2020/12/07 09:02:55;;;;;;;11.50;9.48;;;;;;;;;;5098032;28;20208;-65
2020/12/07 09:05:22;;;;;;;11.43;8.73;;;;;;;;;;5097387;28;20216;-65
2020/12/07 09:07:48;;;;;;;9.27;8.20;;;;;;;;;;5097216;28;20598;-64
2020/12/07 09:10:15;;;;;;;10.80;8.40;;;;;;;;;;5097183;28;20224;-65
2020/12/07 09:12:42;;;;;;;7.10;6.40;;;;;;;;;;5097162;28;20196;-65
2020/12/07 09:15:09;;;;;;;7.63;6.88;;;;;;;;;;5097179;28;20201;-64
2020/12/07 09:17:36;;;;;;;6.20;5.70;;;;;;;;;;5096796;28;20200;-63
2020/12/07 09:20:04;;;;;;;5.40;4.35;;;;;;;;;;5096320;28;20269;-65
2020/12/07 09:22:30;;;;;;;5.13;4.63;;;;;;;;;;5097239;28;20208;-65
2020/12/07 09:24:57;;;;;;;5.70;5.07;;;;;;;;;;5097365;28;20211;-64
2020/12/07 09:27:24;;;;;;;6.55;5.95;;;;;;;;;;5096667;28;20220;-65
2020/12/07 09:29:51;;;;;;;5.85;5.35;;;;;;;;;;5098055;28;20277;-65
2020/12/07 09:32:18;;;;;;;6.05;5.45;;;;;;;;;;5099028;28;20208;-66
2020/12/07 09:34:45;;;;;;;5.85;5.35;;;;;;;;;;5098150;28;20261;-67
2020/12/07 09:37:14;;;;;;;6.72;6.13;;;;;;;;;;5098311;28;20212;-65
2020/12/07 09:39:40;;;;;;;4.80;4.40;;;;;;;;;;5097601;28;20231;-66
2020/12/07 09:42:07;;;;;;;5.47;4.97;;;;;;;;;;5096519;28;20204;-66
2020/12/07 09:44:34;;;;;;;6.15;5.55;;;;;;;;;;5096447;28;20249;-64
2020/12/07 09:47:01;;;;;;;6.50;5.80;;;;;;;;;;5095930;28;20266;-66
2020/12/07 09:49:28;;;;;;;5.85;5.35;;;;;;;;;;5095817;28;20221;-64
2020/12/07 09:51:55;;;;;;;6.07;5.47;;;;;;;;;;5095782;28;20719;-66
2020/12/07 09:54:22;;;;;;;6.43;5.82;;;;;;;;;;5096309;28;20226;-66
2020/12/07 09:56:49;;;;;;;6.55;5.95;;;;;;;;;;5095900;28;20497;-65
2020/12/07 09:59:15;;;;;;;6.30;5.70;;;;;;;;;;5096176;28;20266;-64
2020/12/07 10:01:42;;;;;;;6.88;6.28;;;;;;;;;;5095916;28;20207;-64
2020/12/07 10:04:09;;;;;;;6.75;6.03;;;;;;;;;;5095919;28;20555;-65
2020/12/07 10:06:37;;;;;;;7.30;6.60;;;;;;;;;;5096550;28;20696;-65
2020/12/07 10:09:04;;;;;;;6.53;5.93;;;;;;;;;;5096795;28;20550;-64
2020/12/07 10:11:33;;;;;;;8.57;7.68;;;;;;;;;;5096813;28;20612;-66
2020/12/07 10:14:00;;;;;;;7.28;6.57;;;;;;;;;;5099217;28;20560;-65
2020/12/07 10:16:26;;;;;;;7.05;6.35;;;;;;;;;;5102836;28;20203;-66
2020/12/07 10:18:53;;;;;;;7.55;6.85;;;;;;;;;;5103320;28;20197;-65
2020/12/07 10:21:25;;;;;;;9.20;8.30;;;;;;;;;;5100092;28;20204;-64
2020/12/07 10:23:53;;;;;;;7.93;7.10;;;;;;;;;;5096544;28;20223;-65
2020/12/07 10:26:22;;;;;;;7.93;6.90;;;;;;;;;;5096249;28;20224;-65
2020/12/07 10:28:49;;;;;;;7.35;6.55;;;;;;;;;;5095832;28;20200;-64
2020/12/07 10:31:16;;;;;;;7.65;6.85;;;;;;;;;;5095735;28;20224;-64
2020/12/07 10:33:42;;;;;;;8.70;6.63;;;;;;;;;;5095768;28;20204;-65
2020/12/07 10:36:09;;;;;;;8.38;7.07;;;;;;;;;;5096369;28;20196;-66
2020/12/07 10:38:36;;;;;;;8.30;6.90;;;;;;;;;;5095537;28;20200;-64
2020/12/07 10:41:04;;;;;;;8.38;7.57;;;;;;;;;;5096191;28;20278;-66
2020/12/07 10:43:30;;;;;;;7.50;6.80;;;;;;;;;;5096838;28;20608;-65
2020/12/07 10:45:57;;;;;;;8.43;7.63;;;;;;;;;;5095341;28;20663;-65
2020/12/07 10:48:24;;;;;;;8.48;7.68;;;;;;;;;;5096281;28;20208;-64
2020/12/07 10:50:51;;;;;;;7.15;6.45;;;;;;;;;;5096427;28;20224;-65
2020/12/07 10:53:17;;;;;;;7.63;6.82;;;;;;;;;;5095500;28;20204;-65
2020/12/07 10:55:44;;;;;;;7.97;6.85;;;;;;;;;;5096434;28;20745;-64
2020/12/07 10:58:12;;;;;;;7.63;7.03;;;;;;;;;;5095226;28;20663;-65
2020/12/07 11:00:38;;;;;;;8.68;7.88;;;;;;;;;;5095049;28;20228;-64
2020/12/07 11:03:05;;;;;;;7.40;6.70;;;;;;;;;;5096797;28;20211;-66
2020/12/07 11:05:33;;;;;;;8.00;7.28;;;;;;;;;;5095686;28;20212;-65
2020/12/07 11:08:01;;;;;;;7.30;6.50;;;;;;;;;;5095558;28;20307;-64
2020/12/07 11:10:27;;;;;;;9.88;6.75;;;;;;;;;;5094832;28;20575;-65
2020/12/07 11:12:59;;;;;;;8.20;7.40;;;;;;;;;;5094840;28;20636;-65
2020/12/07 11:15:27;;;;;;;7.15;6.45;;;;;;;;;;5094075;28;20214;-66
2020/12/07 11:17:54;;;;;;;6.90;6.20;;;;;;;;;;5094694;28;20196;-63
2020/12/07 11:20:21;;;;;;;7.22;6.60;;;;;;;;;;5094420;28;20289;-66
2020/12/07 11:22:47;;;;;;;7.05;6.35;;;;;;;;;;5093987;28;20201;-64
2020/12/07 11:25:14;;;;;;;7.15;6.55;;;;;;;;;;5093810;28;20689;-64
2020/12/07 11:27:41;;;;;;;6.57;5.97;;;;;;;;;;5094513;28;20216;-64
2020/12/07 11:30:08;;;;;;;7.00;6.30;;;;;;;;;;5095161;28;20277;-66
2020/12/07 11:32:36;;;;;;;7.75;7.05;;;;;;;;;;5095655;28;20204;-66
2020/12/07 11:35:02;;;;;;;7.85;7.15;;;;;;;;;;5095037;28;20224;-65
2020/12/07 11:37:29;;;;;;;8.15;7.05;;;;;;;;;;5095520;28;20200;-64
2020/12/07 11:40:05;;;;;;;7.55;6.85;;;;;;;;;;5095169;28;20223;-65
2020/12/07 11:42:41;;;;;;;7.13;6.43;;;;;;;;;;5094895;28;20216;-65
2020/12/07 11:45:07;;;;;;;6.45;5.85;;;;;;;;;;5094806;28;20185;-66
2020/12/07 11:47:35;;;;;;;6.90;5.85;;;;;;;;;;5094836;28;20224;-66
2020/12/07 11:50:02;;;;;;;7.22;6.53;;;;;;;;;;5095930;28;20220;-63
2020/12/07 11:52:29;;;;;;;6.57;5.78;;;;;;;;;;5095936;28;20208;-63
2020/12/07 11:54:56;;;;;;;8.32;7.53;;;;;;;;;;5096264;28;20204;-66
2020/12/07 11:57:23;;;;;;;8.13;7.32;;;;;;;;;;5095130;28;20668;-66
2020/12/07 11:59:50;;;;;;;7.05;6.35;;;;;;;;;;5094679;28;20228;-66
2020/12/07 12:02:17;;;;;;;6.90;6.20;;;;;;;;;;5093727;28;20201;-65
2020/12/07 12:04:44;;;;;;;6.32;5.72;;;;;;;;;;5094903;28;20200;-67
2020/12/07 12:07:11;;;;;;;6.75;6.13;;;;;;;;;;5098063;28;20273;-65
2020/12/07 12:09:38;;;;;;;5.95;5.45;;;;;;;;;;5106201;28;20216;-66
2020/12/07 12:12:05;;;;;;;5.78;5.28;;;;;;;;;;5110798;28;20196;-66
2020/12/07 12:14:32;;;;;;;5.78;5.22;;;;;;;;;;5107838;28;20220;-64
2020/12/07 12:16:58;;;;;;;5.10;4.50;;;;;;;;;;5104098;28;20196;-64
2020/12/07 12:19:25;;;;;;;5.00;4.50;;;;;;;;;;5103469;28;20246;-65
2020/12/07 12:21:53;;;;;;;5.50;5.00;;;;;;;;;;5104217;28;20227;-64
2020/12/07 12:24:20;;;;;;;7.38;5.70;;;;;;;;;;5101385;28;20200;-64
2020/12/07 12:26:47;;;;;;;5.57;5.07;;;;;;;;;;5101351;28;20590;-63
2020/12/07 12:29:13;;;;;;;5.70;4.55;;;;;;;;;;5104880;28;20238;-66
2020/12/07 12:31:43;;;;;;;5.20;4.80;;;;;;;;;;5102945;28;20196;-64
2020/12/07 12:34:10;;;;;;;4.93;4.63;;;;;;;;;;5102151;28;20207;-64
2020/12/07 12:36:37;;;;;;;3.67;3.38;;;;;;;;;;5104378;28;20664;-65
2020/12/07 12:39:04;;;;;;;3.95;3.65;;;;;;;;;;5103604;28;20208;-65
2020/12/07 12:41:31;;;;;;;5.35;3.67;;;;;;;;;;5103843;28;20196;-64
2020/12/07 12:43:58;;;;;;;5.85;5.28;;;;;;;;;;5104308;28;20207;-64
2020/12/07 12:46:25;;;;;;;3.50;3.20;;;;;;;;;;5101825;28;20297;-66
2020/12/07 12:48:51;;;;;;;4.38;3.97;;;;;;;;;;5102882;28;20265;-63
2020/12/07 12:51:18;;;;;;;3.22;2.97;;;;;;;;;;5100855;28;20203;-64
2020/12/07 12:53:45;;;;;;;3.03;2.72;;;;;;;;;;5100713;28;20204;-64
2020/12/07 12:56:13;;;;;;;4.00;3.70;;;;;;;;;;5101602;28;20204;-63
2020/12/07 12:58:40;;;;;;;3.55;3.25;;;;;;;;;;5105283;28;20223;-65
2020/12/07 13:01:07;;;;;;;3.60;3.30;;;;;;;;;;5109048;28;20224;-64
2020/12/07 13:03:34;;;;;;;3.20;3.00;;;;;;;;;;5105623;28;20258;-62
2020/12/07 13:06:00;;;;;;;4.80;3.83;;;;;;;;;;5105144;28;20234;-65
2020/12/07 13:08:27;;;;;;;3.10;2.90;;;;;;;;;;5107514;28;20228;-64
2020/12/07 13:10:54;;;;;;;3.65;3.35;;;;;;;;;;5104739;28;20220;-64
2020/12/07 13:13:24;;;;;;;4.90;4.47;;;;;;;;;;5107306;28;20226;-65
2020/12/07 13:15:56;;;;;;;4.38;3.97;;;;;;;;;;5109285;28;20215;-64
2020/12/07 13:18:24;;;;;;;3.72;3.42;;;;;;;;;;5106977;28;20185;-64
2020/12/07 13:20:57;;;;;;;3.47;3.28;;;;;;;;;;5098657;28;20228;-63
2020/12/07 13:23:29;;;;;;;4.60;4.20;;;;;;;;;;5099065;28;20195;-63
2020/12/07 13:26:03;;;;;;;4.93;4.45;;;;;;;;;;5098126;28;20637;-64
2020/12/07 13:28:31;;;;;;;5.53;4.93;;;;;;;;;;5099019;28;20212;-65
2020/12/07 13:31:00;;;;;;;3.85;3.55;;;;;;;;;;5098553;28;20641;-61
2020/12/07 13:33:27;;;;;;;3.80;3.50;;;;;;;;;;5098908;28;20200;-63
2020/12/07 13:35:54;;;;;;;4.45;4.05;;;;;;;;;;5098007;28;20277;-64
2020/12/07 13:38:21;;;;;;;3.90;3.53;;;;;;;;;;5098978;28;20319;-63
2020/12/07 13:40:48;;;;;;;4.03;3.53;;;;;;;;;;5097604;28;20232;-64
2020/12/07 13:43:14;;;;;;;4.35;3.92;;;;;;;;;;5096586;28;20676;-64
2020/12/07 13:45:45;;;;;;;3.88;3.40;;;;;;;;;;5096792;28;20222;-63
2020/12/07 13:48:12;;;;;;;4.10;3.70;;;;;;;;;;5097143;28;20299;-64
2020/12/07 13:50:39;;;;;;;4.38;4.00;;;;;;;;;;5096330;28;20243;-63
2020/12/07 13:53:05;;;;;;;3.10;2.80;;;;;;;;;;5096691;28;20204;-63
2020/12/07 13:55:34;;;;;;;3.23;3.00;;;;;;;;;;5095788;28;20922;-62
2020/12/07 13:58:01;;;;;;;5.85;4.20;;;;;;;;;;5097139;28;20439;-61
2020/12/07 14:00:27;;;;;;;3.72;3.42;;;;;;;;;;5097147;28;20220;-62
2020/12/07 14:02:55;;;;;;;3.60;3.30;;;;;;;;;;5096398;28;20200;-63
2020/12/07 14:05:22;;;;;;;3.97;3.60;;;;;;;;;;5095986;28;20223;-63
2020/12/07 14:07:48;;;;;;;3.08;2.78;;;;;;;;;;5099988;28;20213;-65
2020/12/07 14:10:15;;;;;;;3.70;3.40;;;;;;;;;;5104271;28;20220;-66
2020/12/07 14:12:42;;;;;;;4.30;3.22;;;;;;;;;;5103675;28;20223;-63
2020/12/07 14:15:09;;;;;;;4.18;3.65;;;;;;;;;;5099126;28;20436;-62
2020/12/07 14:17:39;;;;;;;3.70;2.95;;;;;;;;;;5096893;28;20246;-63
2020/12/07 14:20:15;;;;;;;4.18;3.70;;;;;;;;;;5095702;28;20799;-62
2020/12/07 14:22:51;;;;;;;3.85;3.45;;;;;;;;;;5095723;28;20561;-64
2020/12/07 14:41:49;;;;;;;5.00;4.57;;;;;;;;;;5091406;28;20223;-61
2020/12/07 14:44:16;;;;;;;4.68;4.28;;;;;;;;;;5095334;28;20292;-62
2020/12/07 14:46:45;;;;;;;4.28;3.88;;;;;;;;;;5095453;28;20262;-61
2020/12/07 14:49:12;;;;;;;3.47;3.17;;;;;;;;;;5104362;28;20259;-61
2020/12/07 14:51:42;;;;;;;4.95;4.55;;;;;;;;;;5105728;28;20200;-62
2020/12/07 14:54:16;;;;;;;3.80;3.50;;;;;;;;;;5101246;28;20196;-63
2020/12/07 14:57:04;;;;;;;3.35;3.05;;;;;;;;;;5096862;28;20185;-62
2020/12/07 15:05:23;;;;;;;3.85;3.55;;;;;;;;;;5052043;28;20763;-63
2020/12/07 15:16:00;;;;;;;3.17;2.97;;;;;;;;;;5094834;28;20365;-62
2020/12/07 15:18:27;;;;;;;3.58;3.28;;;;;;;;;;5095580;28;20254;-62
2020/12/07 15:20:54;;;;;;;3.40;3.10;;;;;;;;;;5095105;28;20333;-62
2020/12/07 15:23:23;;;;;;;4.43;4.03;;;;;;;;;;5095086;28;20249;-63
2020/12/07 15:25:53;;;;;;;3.00;2.80;;;;;;;;;;5094686;28;20257;-62
2020/12/07 15:28:20;;;;;;;6.28;3.47;;;;;;;;;;5095055;28;20224;-62
2020/12/07 15:30:46;;;;;;;3.03;2.80;;;;;;;;;;5094866;28;20586;-64